Time;durP1;ratioP1;P1;durP2;ratioP2;P2;SDS_P1;SDS_P2;PMS_P1;PMS_P2;Temp;Humidity;BMP_temperature;BMP_pressure;BME280_temperature;BME280_humidity;BME280_pressure;Samples;Min_cycle;Max_cycle;Signal;HPM_P1;HPM_P2
2022/04/03 00:02:11;;;;;;;12.35;5.60;;;;;;;;;;8298336;28;20057;-86
2022/04/03 00:06:13;;;;;;;8.80;5.15;;;;;;;;;;8298135;28;20042;-84
2022/04/03 00:10:16;;;;;;;10.15;5.43;;;;;;;;;;8298319;28;20449;-86
2022/04/03 00:14:18;;;;;;;13.00;6.07;;;;;;;;;;8297225;28;20106;-86
2022/04/03 00:18:23;;;;;;;11.80;5.20;;;;;;;;;;8313728;28;20050;-86
2022/04/03 00:22:26;;;;;;;10.85;5.60;;;;;;;;;;8297267;28;20046;-86
2022/04/03 00:26:28;;;;;;;8.85;5.15;;;;;;;;;;8285348;28;20048;-91
2022/04/03 00:30:31;;;;;;;9.88;5.55;;;;;;;;;;8281185;28;20133;-86
2022/04/03 00:34:35;;;;;;;9.43;5.03;;;;;;;;;;8289866;28;20046;-88
2022/04/03 00:38:38;;;;;;;10.50;5.13;;;;;;;;;;8288799;28;20068;-88
2022/04/03 00:42:41;;;;;;;10.63;5.30;;;;;;;;;;8284760;28;20087;-88
2022/04/03 00:46:44;;;;;;;14.18;5.25;;;;;;;;;;8294149;28;20048;-86
2022/04/03 00:50:48;;;;;;;14.23;4.95;;;;;;;;;;8292842;28;20041;-88
2022/04/03 00:54:51;;;;;;;8.35;4.85;;;;;;;;;;8290650;28;20057;-88
2022/04/03 00:58:54;;;;;;;9.70;4.80;;;;;;;;;;8293411;28;20041;-86
2022/04/03 01:02:57;;;;;;;9.55;4.63;;;;;;;;;;8290050;28;20049;-85
2022/04/03 01:07:01;;;;;;;12.13;5.65;;;;;;;;;;8301901;28;20477;-85
2022/04/03 01:11:03;;;;;;;11.80;4.43;;;;;;;;;;8291362;28;20052;-84
2022/04/03 01:15:08;;;;;;;12.13;4.88;;;;;;;;;;8303827;28;20416;-87
2022/04/03 01:19:10;;;;;;;18.92;4.82;;;;;;;;;;8303222;28;20597;-85
2022/04/03 01:23:15;;;;;;;12.60;4.18;;;;;;;;;;8302739;28;20124;-85
2022/04/03 01:27:19;;;;;;;11.55;5.43;;;;;;;;;;8302953;28;20486;-85
2022/04/03 01:31:22;;;;;;;14.52;5.20;;;;;;;;;;8302519;28;20041;-83
2022/04/03 01:35:24;;;;;;;11.95;5.63;;;;;;;;;;8287321;28;20050;-86
2022/04/03 01:39:27;;;;;;;13.65;5.65;;;;;;;;;;8301255;28;20046;-85
2022/04/03 01:43:31;;;;;;;14.10;5.88;;;;;;;;;;8302596;28;20486;-86
2022/04/03 01:47:34;;;;;;;12.13;5.00;;;;;;;;;;8302742;28;20041;-86
2022/04/03 01:51:37;;;;;;;14.02;6.25;;;;;;;;;;8302030;28;20071;-84
2022/04/03 01:55:40;;;;;;;10.23;5.60;;;;;;;;;;8301035;28;20054;-83
2022/04/03 01:59:44;;;;;;;12.65;6.28;;;;;;;;;;8300823;28;20048;-84
2022/04/03 02:03:47;;;;;;;12.35;5.40;;;;;;;;;;8286187;28;20121;-85
2022/04/03 02:07:50;;;;;;;12.32;5.80;;;;;;;;;;8301440;28;20072;-83
2022/04/03 02:11:52;;;;;;;12.10;6.07;;;;;;;;;;8278150;28;20045;-86
2022/04/03 02:15:56;;;;;;;13.75;5.97;;;;;;;;;;8301738;28;20046;-86
2022/04/03 02:20:01;;;;;;;12.15;5.72;;;;;;;;;;8301297;28;20042;-87
2022/04/03 02:24:07;;;;;;;13.40;5.43;;;;;;;;;;8301140;28;20482;-85
2022/04/03 02:28:11;;;;;;;10.55;5.63;;;;;;;;;;8300717;28;20037;-84
2022/04/03 02:32:16;;;;;;;13.85;6.22;;;;;;;;;;8283899;28;20050;-84
2022/04/03 02:36:19;;;;;;;11.77;5.60;;;;;;;;;;8301087;28;20054;-86
2022/04/03 02:40:24;;;;;;;10.40;5.35;;;;;;;;;;8300998;28;20046;-86
2022/04/03 02:44:27;;;;;;;12.23;5.30;;;;;;;;;;8300360;28;20563;-86
2022/04/03 02:48:32;;;;;;;7.35;4.68;;;;;;;;;;8300262;28;20053;-86
2022/04/03 02:52:34;;;;;;;12.10;5.20;;;;;;;;;;8300572;28;20042;-85
2022/04/03 02:56:37;;;;;;;8.00;4.68;;;;;;;;;;8300249;28;20417;-84
2022/04/03 03:00:39;;;;;;;11.15;5.22;;;;;;;;;;8310433;28;20053;-85
2022/04/03 03:04:43;;;;;;;9.30;4.68;;;;;;;;;;8282763;28;20042;-84
2022/04/03 03:08:46;;;;;;;15.73;5.15;;;;;;;;;;8284240;28;20042;-85
2022/04/03 03:12:49;;;;;;;9.57;4.75;;;;;;;;;;8299893;28;20053;-85
2022/04/03 03:16:52;;;;;;;8.93;4.05;;;;;;;;;;8300136;28;20441;-84
2022/04/03 03:20:56;;;;;;;11.35;5.13;;;;;;;;;;8299100;28;20053;-84
2022/04/03 03:24:58;;;;;;;11.30;5.07;;;;;;;;;;8297572;28;20049;-84
2022/04/03 03:29:01;;;;;;;9.07;4.90;;;;;;;;;;8298650;28;20105;-83
2022/04/03 03:33:03;;;;;;;12.68;4.80;;;;;;;;;;8298414;28;20049;-83
2022/04/03 03:37:08;;;;;;;18.42;7.95;;;;;;;;;;8298690;28;20069;-87
2022/04/03 03:41:11;;;;;;;20.70;8.57;;;;;;;;;;8283456;28;20045;-85
2022/04/03 03:45:16;;;;;;;13.15;6.53;;;;;;;;;;8299112;28;20050;-85
2022/04/03 03:49:19;;;;;;;12.45;5.88;;;;;;;;;;8298236;28;20046;-86
2022/04/03 03:53:23;;;;;;;13.00;5.28;;;;;;;;;;8298150;28;20576;-85
2022/04/03 03:57:27;;;;;;;10.05;5.00;;;;;;;;;;8297496;28;20437;-86
2022/04/03 04:01:30;;;;;;;9.27;4.82;;;;;;;;;;8297840;28;20124;-85
2022/04/03 04:05:33;;;;;;;12.02;5.18;;;;;;;;;;8293138;28;20521;-85
2022/04/03 04:09:37;;;;;;;11.57;5.47;;;;;;;;;;8298123;28;20044;-85
2022/04/03 04:13:39;;;;;;;11.02;5.30;;;;;;;;;;8297759;28;20152;-86
2022/04/03 04:17:43;;;;;;;9.68;5.32;;;;;;;;;;8281251;28;20072;-85
2022/04/03 04:21:46;;;;;;;10.82;5.13;;;;;;;;;;8287840;28;20092;-84
2022/04/03 04:25:50;;;;;;;13.60;7.07;;;;;;;;;;8297758;28;20091;-83
2022/04/03 04:29:53;;;;;;;18.60;7.35;;;;;;;;;;8296896;28;20046;-84
2022/04/03 04:33:55;;;;;;;17.92;7.78;;;;;;;;;;8296767;28;20073;-84
2022/04/03 04:37:58;;;;;;;23.20;10.43;;;;;;;;;;8296939;28;20056;-84
2022/04/03 04:42:02;;;;;;;21.42;9.73;;;;;;;;;;8297625;28;20088;-84
2022/04/03 04:46:05;;;;;;;20.08;9.25;;;;;;;;;;8297733;28;20529;-85
2022/04/03 04:50:08;;;;;;;14.82;7.78;;;;;;;;;;8296721;28;20116;-85
2022/04/03 04:54:11;;;;;;;12.55;7.00;;;;;;;;;;8292974;28;20045;-84
2022/04/03 04:58:15;;;;;;;22.08;8.85;;;;;;;;;;8297049;28;20042;-85
2022/04/03 05:02:18;;;;;;;17.42;9.98;;;;;;;;;;8297054;28;20048;-85
2022/04/03 05:06:23;;;;;;;15.65;8.90;;;;;;;;;;8297321;28;20084;-86
2022/04/03 05:10:30;;;;;;;13.85;8.20;;;;;;;;;;8296418;28;20524;-86
2022/04/03 05:14:34;;;;;;;14.05;7.13;;;;;;;;;;8296887;28;20045;-88
2022/04/03 05:18:37;;;;;;;22.13;7.18;;;;;;;;;;8297254;28;20046;-86
2022/04/03 05:22:40;;;;;;;12.98;6.03;;;;;;;;;;8296599;28;20042;-86
2022/04/03 05:26:43;;;;;;;13.75;6.18;;;;;;;;;;8296931;28;20144;-86
2022/04/03 05:30:47;;;;;;;12.13;5.00;;;;;;;;;;8279382;28;20046;-87
2022/04/03 05:34:50;;;;;;;19.02;6.95;;;;;;;;;;8288680;28;20065;-85
2022/04/03 05:38:54;;;;;;;15.23;6.57;;;;;;;;;;8280114;28;20134;-85
2022/04/03 05:43:03;;;;;;;14.52;5.57;;;;;;;;;;8295386;28;20046;-84
2022/04/03 05:47:09;;;;;;;18.38;6.10;;;;;;;;;;8296027;28;20562;-84
2022/04/03 05:51:12;;;;;;;15.40;6.57;;;;;;;;;;8298876;28;20132;-87
2022/04/03 05:55:17;;;;;;;13.23;5.82;;;;;;;;;;8298081;28;20559;-86
2022/04/03 05:59:19;;;;;;;11.68;5.47;;;;;;;;;;8302457;28;20120;-85
2022/04/03 06:03:23;;;;;;;13.75;5.90;;;;;;;;;;8302595;28;20046;-88
2022/04/03 06:07:26;;;;;;;17.00;6.30;;;;;;;;;;8302535;28;20050;-86
2022/04/03 06:11:29;;;;;;;13.70;5.82;;;;;;;;;;8300767;28;20042;-86
2022/04/03 06:15:34;;;;;;;14.82;5.88;;;;;;;;;;8300422;28;20409;-86
2022/04/03 06:19:38;;;;;;;15.55;6.03;;;;;;;;;;8301559;28;20052;-86
2022/04/03 06:23:42;;;;;;;10.48;5.53;;;;;;;;;;8301318;28;20037;-86
2022/04/03 06:27:44;;;;;;;9.48;4.85;;;;;;;;;;8301208;28;20057;-88
2022/04/03 06:31:49;;;;;;;9.25;5.40;;;;;;;;;;8304830;28;20038;-87
2022/04/03 06:35:53;;;;;;;12.40;6.18;;;;;;;;;;8301293;28;20137;-88
2022/04/03 06:39:56;;;;;;;8.30;4.38;;;;;;;;;;8300894;28;20045;-86
2022/04/03 06:44:00;;;;;;;8.38;4.63;;;;;;;;;;8301071;28;20041;-88
2022/04/03 06:48:03;;;;;;;8.48;4.50;;;;;;;;;;8301027;28;20056;-87
2022/04/03 06:52:08;;;;;;;9.55;4.75;;;;;;;;;;8298874;28;20058;-87
2022/04/03 06:56:11;;;;;;;13.30;5.70;;;;;;;;;;8281184;28;20459;-89
2022/04/03 07:00:15;;;;;;;10.63;4.90;;;;;;;;;;8285173;28;20033;-84
2022/04/03 07:04:19;;;;;;;12.13;5.47;;;;;;;;;;8281995;28;20045;-81
2022/04/03 07:08:24;;;;;;;11.88;5.18;;;;;;;;;;8278817;28;20101;-85
2022/04/03 07:12:29;;;;;;;10.85;5.38;;;;;;;;;;8282360;28;20042;-87
2022/04/03 07:16:32;;;;;;;10.05;4.60;;;;;;;;;;8289872;28;20077;-89
2022/04/03 07:20:38;;;;;;;11.63;5.15;;;;;;;;;;8289256;28;20091;-85
2022/04/03 07:24:45;;;;;;;10.88;5.28;;;;;;;;;;8295734;28;20046;-86
2022/04/03 07:28:49;;;;;;;10.85;4.97;;;;;;;;;;8299116;28;20405;-84
2022/04/03 07:32:52;;;;;;;8.23;4.82;;;;;;;;;;8298608;28;20046;-86
2022/04/03 07:36:56;;;;;;;10.82;4.88;;;;;;;;;;8297213;28;20129;-84
2022/04/03 07:41:01;;;;;;;9.18;4.85;;;;;;;;;;8298883;28;20478;-85
2022/04/03 07:45:06;;;;;;;29.55;12.73;;;;;;;;;;8284535;28;20107;-86
2022/04/03 07:49:10;;;;;;;14.40;5.53;;;;;;;;;;8283108;28;20049;-83
2022/04/03 07:53:13;;;;;;;12.70;5.00;;;;;;;;;;8294662;28;20046;-85
2022/04/03 07:57:21;;;;;;;17.48;6.93;;;;;;;;;;8288002;28;20474;-84
2022/04/03 08:01:26;;;;;;;12.68;5.10;;;;;;;;;;8280686;28;20497;-83
2022/04/03 08:05:29;;;;;;;11.75;5.65;;;;;;;;;;8295128;28;20121;-80
2022/04/03 08:09:32;;;;;;;9.23;4.70;;;;;;;;;;8298882;28;20041;-82
2022/04/03 08:13:41;;;;;;;9.18;4.95;;;;;;;;;;8296452;28;20465;-83
2022/04/03 08:17:45;;;;;;;11.43;5.60;;;;;;;;;;8297084;28;20042;-82
2022/04/03 08:21:48;;;;;;;78.72;22.77;;;;;;;;;;8301324;28;20050;-84
2022/04/03 08:25:54;;;;;;;66.30;22.50;;;;;;;;;;8310483;28;20120;-85
2022/04/03 08:30:07;;;;;;;12.40;6.35;;;;;;;;;;8272333;28;20452;-84
2022/04/03 08:34:16;;;;;;;75.45;25.77;;;;;;;;;;8306395;28;20081;-83
2022/04/03 08:38:21;;;;;;;23.10;8.63;;;;;;;;;;8329785;28;20456;-82
2022/04/03 08:42:27;;;;;;;13.35;6.25;;;;;;;;;;8330446;28;20519;-83
2022/04/03 08:46:37;;;;;;;8.93;4.85;;;;;;;;;;8329961;28;20068;-82
2022/04/03 08:50:52;;;;;;;9.05;4.80;;;;;;;;;;8329746;28;20041;-81
2022/04/03 08:54:54;;;;;;;;;;;;;;;;;;8330062;28;20095;-81
2022/04/03 08:59:05;;;;;;;9.35;5.03;;;;;;;;;;8329931;28;19921;-82
2022/04/03 09:03:33;;;;;;;7.38;4.03;;;;;;;;;;8290632;28;20145;-80
2022/04/03 09:07:44;;;;;;;7.72;4.30;;;;;;;;;;8296605;28;20478;-80
2022/04/03 09:12:07;;;;;;;7.65;4.20;;;;;;;;;;8296840;28;20451;-82
2022/04/03 09:16:14;;;;;;;7.80;4.40;;;;;;;;;;8295725;28;20056;-81
2022/04/03 09:20:20;;;;;;;10.35;5.10;;;;;;;;;;8292235;28;20042;-78
2022/04/03 09:24:26;;;;;;;7.55;4.93;;;;;;;;;;8299401;28;20052;-78
2022/04/03 09:28:39;;;;;;;11.70;6.13;;;;;;;;;;8301372;28;20046;-79
2022/04/03 09:32:48;;;;;;;18.58;8.00;;;;;;;;;;8296412;28;20110;-81
2022/04/03 09:37:01;;;;;;;20.52;8.77;;;;;;;;;;8300539;28;20149;-80
2022/04/03 09:41:05;;;;;;;13.70;8.60;;;;;;;;;;8302415;28;20573;-80
2022/04/03 09:45:26;;;;;;;11.98;5.60;;;;;;;;;;8300553;28;20398;-78
2022/04/03 09:49:29;;;;;;;12.20;5.43;;;;;;;;;;8280832;28;20121;-80
2022/04/03 09:53:47;;;;;;;10.38;5.53;;;;;;;;;;8297588;28;20042;-78
2022/04/03 09:58:02;;;;;;;8.07;4.55;;;;;;;;;;8291874;28;20140;-79
2022/04/03 10:02:16;;;;;;;7.22;4.10;;;;;;;;;;8296011;28;20061;-79
2022/04/03 10:06:20;;;;;;;10.07;5.53;;;;;;;;;;8300128;28;20050;-80
2022/04/03 10:10:27;;;;;;;9.57;5.00;;;;;;;;;;8300718;28;20054;-78
2022/04/03 10:14:34;;;;;;;10.20;4.85;;;;;;;;;;8286969;28;20088;-80
2022/04/03 10:18:40;;;;;;;7.05;4.50;;;;;;;;;;8298210;28;20046;-79
2022/04/03 10:22:49;;;;;;;7.82;4.50;;;;;;;;;;8291279;28;20049;-80
2022/04/03 10:27:01;;;;;;;9.65;4.60;;;;;;;;;;8294097;28;20068;-79
2022/04/03 10:31:07;;;;;;;7.60;4.78;;;;;;;;;;8299302;28;20065;-79
2022/04/03 10:35:14;;;;;;;12.05;6.47;;;;;;;;;;8297367;28;20493;-80
2022/04/03 10:39:24;;;;;;;8.40;5.07;;;;;;;;;;8294051;28;20052;-81
2022/04/03 10:43:39;;;;;;;7.55;4.70;;;;;;;;;;8293649;28;20050;-81
2022/04/03 10:47:49;;;;;;;7.63;5.15;;;;;;;;;;8290910;28;20049;-79
2022/04/03 10:52:03;;;;;;;9.55;4.97;;;;;;;;;;8300093;28;20046;-79
2022/04/03 10:56:12;;;;;;;10.52;5.75;;;;;;;;;;8294414;28;20447;-82
2022/04/03 11:00:37;;;;;;;15.63;6.63;;;;;;;;;;8291713;28;20405;-80
2022/04/03 11:04:44;;;;;;;8.65;5.22;;;;;;;;;;8289100;28;20511;-80
2022/04/03 11:09:04;;;;;;;8.30;4.50;;;;;;;;;;8289697;28;20076;-79
2022/04/03 11:13:10;;;;;;;8.23;4.87;;;;;;;;;;8291705;28;20046;-81
2022/04/03 11:17:15;;;;;;;8.52;4.63;;;;;;;;;;8299918;28;20042;-79
2022/04/03 11:21:32;;;;;;;7.93;4.72;;;;;;;;;;8297832;28;20050;-79
2022/04/03 11:25:45;;;;;;;7.07;4.20;;;;;;;;;;8294710;28;20045;-77
2022/04/03 11:29:49;;;;;;;11.07;5.57;;;;;;;;;;8299769;28;20053;-79
2022/04/03 11:33:56;;;;;;;7.90;4.13;;;;;;;;;;8297825;28;20189;-79
2022/04/03 11:38:01;;;;;;;6.90;4.07;;;;;;;;;;8266429;28;20070;-80
2022/04/03 11:42:08;;;;;;;6.85;4.00;;;;;;;;;;8280587;28;20053;-81
2022/04/03 11:46:18;;;;;;;10.88;5.50;;;;;;;;;;8288897;28;20046;-80
2022/04/03 11:50:32;;;;;;;13.45;6.63;;;;;;;;;;8288792;28;20038;-81
2022/04/03 11:54:39;;;;;;;11.55;5.70;;;;;;;;;;8291015;28;20042;-81
2022/04/03 11:58:43;;;;;;;9.93;5.13;;;;;;;;;;8289453;28;20052;-79
2022/04/03 12:02:47;;;;;;;12.90;6.30;;;;;;;;;;8291575;28;20054;-80
2022/04/03 12:06:59;;;;;;;9.32;4.90;;;;;;;;;;8288136;28;20042;-81
2022/04/03 12:11:20;;;;;;;10.65;6.15;;;;;;;;;;8291527;28;20581;-81
2022/04/03 12:15:25;;;;;;;11.10;5.10;;;;;;;;;;8298941;28;20065;-83
2022/04/03 12:19:38;;;;;;;6.50;3.92;;;;;;;;;;8282347;28;20041;-81
2022/04/03 12:24:02;;;;;;;9.15;4.65;;;;;;;;;;8290242;28;20557;-81
2022/04/03 12:28:10;;;;;;;10.80;4.47;;;;;;;;;;8286425;28;20061;-81
2022/04/03 12:32:35;;;;;;;6.18;3.90;;;;;;;;;;8273403;28;20069;-81
2022/04/03 12:36:57;;;;;;;10.52;5.20;;;;;;;;;;8288620;28;20155;-81
2022/04/03 12:41:05;;;;;;;11.35;5.25;;;;;;;;;;8276139;28;20125;-80
2022/04/03 12:45:15;;;;;;;12.77;7.28;;;;;;;;;;8276001;28;20054;-81
2022/04/03 12:49:20;;;;;;;13.00;5.68;;;;;;;;;;8275064;28;20136;-81
2022/04/03 12:53:25;;;;;;;11.18;6.70;;;;;;;;;;8293441;28;20045;-79
2022/04/03 13:01:54;;;;;;;11.52;5.22;;;;;;;;;;8295820;28;20096;-80
2022/04/03 13:05:59;;;;;;;15.00;7.07;;;;;;;;;;8296718;28;20057;-80
2022/04/03 13:10:06;;;;;;;10.50;4.80;;;;;;;;;;8293310;28;20041;-80
2022/04/03 13:14:19;;;;;;;10.35;4.93;;;;;;;;;;8287563;28;20077;-79
2022/04/03 13:18:25;;;;;;;10.50;4.70;;;;;;;;;;8288991;28;20088;-81
2022/04/03 13:22:31;;;;;;;8.38;4.10;;;;;;;;;;8290337;28;21482;-81
2022/04/03 13:26:38;;;;;;;10.73;5.07;;;;;;;;;;8289312;28;20072;-80
2022/04/03 13:30:44;;;;;;;6.78;4.28;;;;;;;;;;8285064;28;20085;-81
2022/04/03 13:34:49;;;;;;;11.13;4.82;;;;;;;;;;8286150;28;20059;-82
2022/04/03 13:38:53;;;;;;;14.48;4.35;;;;;;;;;;8279014;28;20043;-81
2022/04/03 13:42:58;;;;;;;7.28;4.28;;;;;;;;;;8280621;28;20073;-80
2022/04/03 13:47:05;;;;;;;12.50;5.55;;;;;;;;;;8278986;28;20052;-79
2022/04/03 13:51:09;;;;;;;10.85;5.55;;;;;;;;;;8282941;28;20054;-81
2022/04/03 13:55:12;;;;;;;11.18;5.45;;;;;;;;;;8286523;28;20595;-81
2022/04/03 13:59:16;;;;;;;7.68;4.43;;;;;;;;;;8296754;28;20050;-79
2022/04/03 14:03:22;;;;;;;11.25;6.05;;;;;;;;;;8291353;28;20054;-81
2022/04/03 14:07:27;;;;;;;10.70;6.53;;;;;;;;;;8278109;28;20490;-80
2022/04/03 14:11:33;;;;;;;12.35;7.13;;;;;;;;;;8293766;28;20050;-83
2022/04/03 14:15:38;;;;;;;13.02;6.03;;;;;;;;;;8280606;28;20050;-81
2022/04/03 14:19:43;;;;;;;12.07;5.57;;;;;;;;;;8276979;28;20092;-81
2022/04/03 14:23:53;;;;;;;7.93;4.15;;;;;;;;;;8287176;28;20061;-81
2022/04/03 14:27:59;;;;;;;8.73;4.50;;;;;;;;;;8290288;28;20050;-81
2022/04/03 14:32:20;;;;;;;8.13;4.60;;;;;;;;;;8323036;28;20180;-80
2022/04/03 14:36:52;;;;;;;6.15;3.80;;;;;;;;;;8286601;28;20064;-81
2022/04/03 14:41:23;;;;;;;15.30;5.75;;;;;;;;;;8267788;28;20058;-80
2022/04/03 14:45:39;;;;;;;13.82;5.13;;;;;;;;;;8274260;28;20068;-81
2022/04/03 14:49:59;;;;;;;16.42;7.95;;;;;;;;;;8271597;28;20096;-79
2022/04/03 14:54:15;;;;;;;12.57;5.75;;;;;;;;;;8282400;28;20065;-81
2022/04/03 14:58:18;;;;;;;16.95;6.57;;;;;;;;;;8277378;28;20121;-81
2022/04/03 15:02:27;;;;;;;9.77;3.97;;;;;;;;;;8273432;28;20053;-81
2022/04/03 15:06:31;;;;;;;9.23;5.38;;;;;;;;;;8274557;28;20049;-80
2022/04/03 15:10:39;;;;;;;15.80;7.15;;;;;;;;;;8269719;28;20046;-80
2022/04/03 15:14:46;;;;;;;14.98;7.32;;;;;;;;;;8291490;28;20072;-83
2022/04/03 15:18:56;;;;;;;13.50;6.68;;;;;;;;;;8299997;28;20125;-81
2022/04/03 15:23:16;;;;;;;10.98;5.30;;;;;;;;;;8267736;28;20414;-79
2022/04/03 15:27:44;;;;;;;;;;;;;;;;;;8265846;28;20030;-80
2022/04/03 15:32:18;;;;;;;15.93;7.30;;;;;;;;;;8271774;28;19925;-81
2022/04/03 15:36:38;;;;;;;20.02;6.75;;;;;;;;;;8264435;28;20060;-82
2022/04/03 15:41:07;;;;;;;15.48;5.90;;;;;;;;;;8266787;28;20437;-80
2022/04/03 15:45:20;;;;;;;29.98;13.30;;;;;;;;;;8266369;28;20089;-81
2022/04/03 15:49:49;;;;;;;21.15;10.13;;;;;;;;;;8282177;28;20042;-83
2022/04/03 15:53:57;;;;;;;51.10;20.63;;;;;;;;;;8296768;28;20050;-82
2022/04/03 15:58:02;;;;;;;20.90;11.27;;;;;;;;;;8296510;28;20074;-80
2022/04/03 16:02:08;;;;;;;15.40;8.23;;;;;;;;;;8290563;28;20054;-79
2022/04/03 16:06:14;;;;;;;32.00;14.95;;;;;;;;;;8277094;28;20046;-81
2022/04/03 16:10:30;;;;;;;35.53;13.25;;;;;;;;;;8274976;28;20046;-79
2022/04/03 16:14:34;;;;;;;31.80;11.95;;;;;;;;;;8283322;28;20056;-79
2022/04/03 16:18:40;;;;;;;20.10;8.35;;;;;;;;;;8280441;28;20398;-80
2022/04/03 16:22:47;;;;;;;22.67;11.73;;;;;;;;;;8276222;28;20049;-80
2022/04/03 16:26:54;;;;;;;28.85;14.13;;;;;;;;;;8279823;28;20044;-79
2022/04/03 16:30:58;;;;;;;27.50;12.90;;;;;;;;;;8259883;28;20054;-82
2022/04/03 16:35:06;;;;;;;34.30;17.63;;;;;;;;;;8282007;28;20097;-79
2022/04/03 16:39:30;;;;;;;34.88;15.30;;;;;;;;;;8272145;28;20053;-79
2022/04/03 16:43:34;;;;;;;30.27;12.43;;;;;;;;;;8276642;28;20513;-81
2022/04/03 16:47:38;;;;;;;45.97;19.30;;;;;;;;;;8283993;28;20049;-80
2022/04/03 16:51:45;;;;;;;96.30;31.30;;;;;;;;;;8288245;28;20405;-81
2022/04/03 16:55:51;;;;;;;81.38;30.42;;;;;;;;;;8263798;28;20061;-79
2022/04/03 16:59:55;;;;;;;73.18;24.52;;;;;;;;;;8292641;28;20470;-80
2022/04/03 17:03:59;;;;;;;42.47;17.13;;;;;;;;;;8283872;28;20856;-78
2022/04/03 17:08:06;;;;;;;33.33;14.20;;;;;;;;;;8288719;28;20050;-81
2022/04/03 17:12:12;;;;;;;40.83;15.77;;;;;;;;;;8287772;28;20502;-80
2022/04/03 17:16:15;;;;;;;26.55;12.27;;;;;;;;;;8267540;28;20465;-80
2022/04/03 17:20:20;;;;;;;20.10;9.93;;;;;;;;;;8275246;28;20096;-80
2022/04/03 17:24:24;;;;;;;26.33;12.35;;;;;;;;;;8275753;28;20109;-80
2022/04/03 17:28:29;;;;;;;12.98;7.20;;;;;;;;;;8270247;28;20057;-83
2022/04/03 17:32:50;;;;;;;25.30;10.18;;;;;;;;;;8292301;28;20132;-92
2022/04/03 17:36:54;;;;;;;14.80;8.25;;;;;;;;;;8288803;28;20493;-86
2022/04/03 17:41:00;;;;;;;20.98;10.38;;;;;;;;;;8309238;28;20042;-83
2022/04/03 17:45:05;;;;;;;46.75;19.67;;;;;;;;;;8308337;28;20572;-83
2022/04/03 17:49:15;;;;;;;58.45;26.77;;;;;;;;;;8279909;28;20046;-80
2022/04/03 17:53:23;;;;;;;31.65;13.48;;;;;;;;;;8286886;28;20049;-83
2022/04/03 17:57:29;;;;;;;30.17;16.33;;;;;;;;;;8285529;28;20080;-81
2022/04/03 18:01:38;;;;;;;16.40;8.25;;;;;;;;;;8287914;28;20046;-82
2022/04/03 18:05:46;;;;;;;19.33;9.80;;;;;;;;;;8285767;28;20054;-80
2022/04/03 18:09:54;;;;;;;19.75;11.50;;;;;;;;;;8284656;28;20042;-81
2022/04/03 18:14:02;;;;;;;16.67;7.88;;;;;;;;;;8284872;28;20133;-79
2022/04/03 18:18:09;;;;;;;36.03;15.98;;;;;;;;;;8293064;28;20042;-79
2022/04/03 18:22:17;;;;;;;33.50;13.98;;;;;;;;;;8294269;28;20493;-81
2022/04/03 18:26:23;;;;;;;27.95;11.98;;;;;;;;;;8282350;28;20057;-81
2022/04/03 18:30:35;;;;;;;25.48;11.48;;;;;;;;;;8282362;28;20038;-78
2022/04/03 18:34:41;;;;;;;;;;;;;;;;;;8283944;28;20062;-81
2022/04/03 18:38:52;;;;;;;16.00;7.82;;;;;;;;;;8291594;28;19927;-80
2022/04/03 18:43:02;;;;;;;15.23;8.15;;;;;;;;;;8279724;28;20085;-80
2022/04/03 18:47:11;;;;;;;19.40;7.70;;;;;;;;;;8289862;28;20049;-81
2022/04/03 18:51:14;;;;;;;21.42;9.60;;;;;;;;;;8285266;28;20113;-82
2022/04/03 18:55:17;;;;;;;32.20;10.68;;;;;;;;;;8280963;28;20073;-83
2022/04/03 18:59:23;;;;;;;44.05;14.77;;;;;;;;;;8282961;28;20136;-84
2022/04/03 19:03:28;;;;;;;22.45;8.73;;;;;;;;;;8284870;28;20140;-83
2022/04/03 19:07:31;;;;;;;35.75;13.52;;;;;;;;;;8291560;28;20042;-85
2022/04/03 19:11:35;;;;;;;45.17;13.90;;;;;;;;;;8300642;28;20054;-84
2022/04/03 19:15:53;;;;;;;50.30;15.27;;;;;;;;;;8283629;28;20123;-82
2022/04/03 19:20:05;;;;;;;31.33;10.90;;;;;;;;;;8279653;28;20133;-80
2022/04/03 19:24:13;;;;;;;51.83;17.08;;;;;;;;;;8290157;28;20048;-79
2022/04/03 19:28:16;;;;;;;29.23;11.48;;;;;;;;;;8320586;28;20054;-83
2022/04/03 19:32:20;;;;;;;27.05;10.00;;;;;;;;;;8315875;28;20054;-83
2022/04/03 19:36:26;;;;;;;29.85;10.82;;;;;;;;;;8274498;28;20109;-82
2022/04/03 19:40:29;;;;;;;24.25;9.48;;;;;;;;;;8267288;28;20157;-81
2022/04/03 19:44:33;;;;;;;33.63;12.48;;;;;;;;;;8267520;28;20505;-81
2022/04/03 19:48:37;;;;;;;33.80;14.00;;;;;;;;;;8267428;28;20046;-80
2022/04/03 19:52:42;;;;;;;37.35;13.73;;;;;;;;;;8266985;28;20046;-79
2022/04/03 19:56:45;;;;;;;36.30;13.02;;;;;;;;;;8266834;28;20050;-80
2022/04/03 20:00:49;;;;;;;38.88;13.52;;;;;;;;;;8266549;28;20057;-81
2022/04/03 20:04:54;;;;;;;35.20;12.77;;;;;;;;;;8266370;28;20110;-80
2022/04/03 20:08:59;;;;;;;22.25;9.88;;;;;;;;;;8265714;28;20065;-83
2022/04/03 20:13:02;;;;;;;28.52;10.32;;;;;;;;;;8266302;28;20042;-85
2022/04/03 20:17:06;;;;;;;33.20;11.63;;;;;;;;;;8276457;28;20046;-81
2022/04/03 20:21:11;;;;;;;30.98;9.90;;;;;;;;;;8266305;28;20429;-80
2022/04/03 20:25:16;;;;;;;33.45;11.13;;;;;;;;;;8266063;28;20450;-80
2022/04/03 20:29:20;;;;;;;30.15;11.50;;;;;;;;;;8248475;28;20046;-79
2022/04/03 20:33:23;;;;;;;36.33;11.85;;;;;;;;;;8265799;28;20046;-83
2022/04/03 20:37:27;;;;;;;33.85;11.48;;;;;;;;;;8265575;28;20149;-80
2022/04/03 20:41:31;;;;;;;25.25;9.32;;;;;;;;;;8265708;28;20046;-83
2022/04/03 20:45:36;;;;;;;31.35;10.32;;;;;;;;;;8265838;28;20109;-81
2022/04/03 20:49:39;;;;;;;25.80;8.80;;;;;;;;;;8265734;28;20066;-81
2022/04/03 20:53:43;;;;;;;23.30;7.28;;;;;;;;;;8265346;28;20565;-80
2022/04/03 20:57:48;;;;;;;34.17;11.63;;;;;;;;;;8265391;28;20503;-79
2022/04/03 21:01:52;;;;;;;22.08;9.23;;;;;;;;;;8265395;28;20050;-79
2022/04/03 21:05:55;;;;;;;14.85;7.65;;;;;;;;;;8265739;28;20057;-83
2022/04/03 21:10:00;;;;;;;16.95;8.18;;;;;;;;;;8265756;28;20487;-82
2022/04/03 21:14:06;;;;;;;19.60;7.93;;;;;;;;;;8265115;28;20141;-83
2022/04/03 21:18:09;;;;;;;15.45;8.48;;;;;;;;;;8267961;28;20112;-79
2022/04/03 21:22:12;;;;;;;22.25;10.40;;;;;;;;;;8272025;28;20050;-80
2022/04/03 21:26:15;;;;;;;17.73;8.70;;;;;;;;;;8271358;28;20399;-80
2022/04/03 21:30:19;;;;;;;15.93;8.32;;;;;;;;;;8281101;28;20050;-83
2022/04/03 21:34:22;;;;;;;17.80;7.45;;;;;;;;;;8270962;28;20073;-80
2022/04/03 21:38:25;;;;;;;17.10;7.22;;;;;;;;;;8270977;28;20137;-82
2022/04/03 21:42:28;;;;;;;15.80;7.60;;;;;;;;;;8271138;28;20042;-81
2022/04/03 21:46:33;;;;;;;16.20;7.80;;;;;;;;;;8270764;28;20054;-83
2022/04/03 21:50:38;;;;;;;15.93;8.60;;;;;;;;;;8270814;28;20050;-81
2022/04/03 21:54:41;;;;;;;20.65;9.52;;;;;;;;;;8270828;28;20042;-82
2022/04/03 21:58:44;;;;;;;16.10;8.00;;;;;;;;;;8271210;28;20046;-80
2022/04/03 22:02:48;;;;;;;20.55;8.50;;;;;;;;;;8270372;28;20039;-80
2022/04/03 22:06:51;;;;;;;15.55;6.80;;;;;;;;;;8270813;28;20505;-79
2022/04/03 22:10:54;;;;;;;12.52;6.97;;;;;;;;;;8270025;28;20050;-79
2022/04/03 22:14:56;;;;;;;15.60;6.95;;;;;;;;;;8269764;28;20046;-78
2022/04/03 22:19:00;;;;;;;14.98;6.03;;;;;;;;;;8274757;28;20129;-80
2022/04/03 22:23:03;;;;;;;13.18;6.82;;;;;;;;;;8274068;28;20061;-78
2022/04/03 22:27:06;;;;;;;12.73;5.72;;;;;;;;;;8269517;28;20391;-79
2022/04/03 22:31:10;;;;;;;12.52;6.05;;;;;;;;;;8268581;28;20046;-80
2022/04/03 22:35:14;;;;;;;10.90;5.45;;;;;;;;;;8269037;28;20251;-81
2022/04/03 22:39:17;;;;;;;12.13;6.07;;;;;;;;;;8269603;28;20043;-81
2022/04/03 22:43:21;;;;;;;9.63;5.30;;;;;;;;;;8268948;28;20051;-81
2022/04/03 22:47:23;;;;;;;14.90;5.90;;;;;;;;;;8269332;28;20144;-80
2022/04/03 22:51:27;;;;;;;12.75;5.97;;;;;;;;;;8275956;28;20054;-81
2022/04/03 22:55:30;;;;;;;15.00;5.55;;;;;;;;;;8299174;28;20046;-78
2022/04/03 22:59:32;;;;;;;11.80;5.53;;;;;;;;;;8281839;28;20042;-80
2022/04/03 23:03:36;;;;;;;16.90;6.38;;;;;;;;;;8278207;28;20042;-79
2022/04/03 23:07:40;;;;;;;12.32;5.15;;;;;;;;;;8297799;28;20394;-81
2022/04/03 23:11:43;;;;;;;11.15;4.85;;;;;;;;;;8289246;28;20053;-79
2022/04/03 23:15:45;;;;;;;10.40;4.63;;;;;;;;;;8290744;28;20139;-79
2022/04/03 23:19:48;;;;;;;9.82;4.35;;;;;;;;;;8296201;28;20505;-79
2022/04/03 23:23:53;;;;;;;10.07;5.30;;;;;;;;;;8286703;28;20255;-80
2022/04/03 23:27:55;;;;;;;14.65;5.15;;;;;;;;;;8279098;28;20047;-79
2022/04/03 23:31:58;;;;;;;10.65;5.10;;;;;;;;;;8288591;28;20049;-79
2022/04/03 23:36:01;;;;;;;11.18;5.60;;;;;;;;;;8289920;28;20506;-79
2022/04/03 23:40:07;;;;;;;11.98;5.15;;;;;;;;;;8297461;28;20046;-78
2022/04/03 23:44:09;;;;;;;10.82;5.05;;;;;;;;;;8294659;28;20410;-79
2022/04/03 23:48:12;;;;;;;12.52;5.13;;;;;;;;;;8274946;28;20046;-80
2022/04/03 23:52:15;;;;;;;12.48;5.40;;;;;;;;;;8268704;28;20056;-79
2022/04/03 23:56:18;;;;;;;8.55;5.10;;;;;;;;;;8294497;28;20104;-77
